Terminal Aerodrome Forecast
Issued by NWS Jackson, MS

Current Version | Previous Version | Text Only | Print | Product List | Glossary On
Versions: 1 2 3 4 5 6 7 8 9 10 11 12 13
000
FTUS44 KJAN 291900 AAA
TAFMEI
TAF AMD
KMEI 291928Z 2919/3018 22013G25KT P6SM SCT100 BKN250
     FM300100 29013KT P6SM BKN040
     FM300600 36010KT P6SM OVC030
     FM301000 36007KT P6SM SCT250=

USA.gov is the U.S. government's official web portal to all federal, state and local government web resources and services.